sensor_id;sensor_type;location;lat;lon;timestamp;temperature;humidity
9668;DHT22;4872;48.316;10.650;2023-02-15T05:06:08;-0.80;99.90
9668;DHT22;4872;48.316;10.650;2023-02-15T05:08:35;-0.80;99.90
9668;DHT22;4872;48.316;10.650;2023-02-15T05:11:01;-0.90;99.90
9668;DHT22;4872;48.316;10.650;2023-02-15T05:13:28;-1.00;99.90
9668;DHT22;4872;48.316;10.650;2023-02-15T05:15:55;-1.00;99.90
9668;DHT22;4872;48.316;10.650;2023-02-15T05:18:22;-1.10;99.90
9668;DHT22;4872;48.316;10.650;2023-02-15T05:20:49;-1.00;99.90
9668;DHT22;4872;48.316;10.650;2023-02-15T05:23:17;-1.20;99.90
9668;DHT22;4872;48.316;10.650;2023-02-15T05:25:47;-1.20;99.90
9668;DHT22;4872;48.316;10.650;2023-02-15T05:28:31;-1.20;99.90
9668;DHT22;4872;48.316;10.650;2023-02-15T05:31:03;-1.20;99.90
9668;DHT22;4872;48.316;10.650;2023-02-15T05:33:30;-1.20;99.90
9668;DHT22;4872;48.316;10.650;2023-02-15T05:35:56;-1.30;99.90
9668;DHT22;4872;48.316;10.650;2023-02-15T05:38:25;-1.20;99.90
9668;DHT22;4872;48.316;10.650;2023-02-15T05:40:52;-1.20;99.90
9668;DHT22;4872;48.316;10.650;2023-02-15T05:43:19;-1.20;99.90
9668;DHT22;4872;48.316;10.650;2023-02-15T05:45:46;-1.20;99.90
9668;DHT22;4872;48.316;10.650;2023-02-15T05:48:13;-1.20;99.90
9668;DHT22;4872;48.316;10.650;2023-02-15T05:50:39;-1.10;99.90
9668;DHT22;4872;48.316;10.650;2023-02-15T05:53:06;-1.10;99.90
9668;DHT22;4872;48.316;10.650;2023-02-15T05:55:37;-1.20;99.90
9668;DHT22;4872;48.316;10.650;2023-02-15T05:58:03;-1.20;99.90
9668;DHT22;4872;48.316;10.650;2023-02-15T06:00:30;-1.10;99.90
9668;DHT22;4872;48.316;10.650;2023-02-15T06:02:57;-1.20;99.90
9668;DHT22;4872;48.316;10.650;2023-02-15T06:05:24;-1.20;99.90
9668;DHT22;4872;48.316;10.650;2023-02-15T06:07:50;-1.20;99.90
9668;DHT22;4872;48.316;10.650;2023-02-15T06:10:17;-1.20;99.90
9668;DHT22;4872;48.316;10.650;2023-02-15T06:12:45;-1.20;99.90
9668;DHT22;4872;48.316;10.650;2023-02-15T06:15:12;-1.20;99.90
9668;DHT22;4872;48.316;10.650;2023-02-15T06:17:40;-1.20;99.90
9668;DHT22;4872;48.316;10.650;2023-02-15T06:20:08;-1.30;99.90
9668;DHT22;4872;48.316;10.650;2023-02-15T06:22:35;-1.30;99.90
9668;DHT22;4872;48.316;10.650;2023-02-15T06:25:02;-1.40;99.90
9668;DHT22;4872;48.316;10.650;2023-02-15T06:27:28;-1.40;99.90
9668;DHT22;4872;48.316;10.650;2023-02-15T06:29:57;-1.30;99.90
9668;DHT22;4872;48.316;10.650;2023-02-15T06:32:24;-1.40;99.90
9668;DHT22;4872;48.316;10.650;2023-02-15T06:34:50;-1.40;99.90
9668;DHT22;4872;48.316;10.650;2023-02-15T06:37:17;-1.10;99.90
9668;DHT22;4872;48.316;10.650;2023-02-15T06:39:44;-1.30;99.90
9668;DHT22;4872;48.316;10.650;2023-02-15T06:42:10;-1.30;99.90
9668;DHT22;4872;48.316;10.650;2023-02-15T06:44:37;-1.30;99.90
9668;DHT22;4872;48.316;10.650;2023-02-15T06:47:05;-1.20;99.90
9668;DHT22;4872;48.316;10.650;2023-02-15T06:49:32;-1.20;99.90
9668;DHT22;4872;48.316;10.650;2023-02-15T06:51:59;-1.20;99.90
9668;DHT22;4872;48.316;10.650;2023-02-15T06:54:25;-1.20;99.90
9668;DHT22;4872;48.316;10.650;2023-02-15T06:56:52;-1.20;99.90
9668;DHT22;4872;48.316;10.650;2023-02-15T06:59:19;-1.20;99.90
9668;DHT22;4872;48.316;10.650;2023-02-15T07:01:45;-1.20;99.90
9668;DHT22;4872;48.316;10.650;2023-02-15T07:04:13;-1.10;99.90
9668;DHT22;4872;48.316;10.650;2023-02-15T07:06:40;-1.10;99.90
9668;DHT22;4872;48.316;10.650;2023-02-15T07:09:07;-1.10;99.90
9668;DHT22;4872;48.316;10.650;2023-02-15T07:11:34;-1.10;99.90
9668;DHT22;4872;48.316;10.650;2023-02-15T07:14:18;-1.30;99.90
9668;DHT22;4872;48.316;10.650;2023-02-15T07:16:45;-1.30;99.90
9668;DHT22;4872;48.316;10.650;2023-02-15T07:19:13;-1.70;99.90
9668;DHT22;4872;48.316;10.650;2023-02-15T07:21:40;-1.60;99.90
9668;DHT22;4872;48.316;10.650;2023-02-15T07:24:07;-1.60;99.90
9668;DHT22;4872;48.316;10.650;2023-02-15T07:26:34;-1.50;99.90
9668;DHT22;4872;48.316;10.650;2023-02-15T07:29:00;-1.50;99.90
9668;DHT22;4872;48.316;10.650;2023-02-15T07:31:27;-1.40;99.90
9668;DHT22;4872;48.316;10.650;2023-02-15T07:33:54;-1.40;99.90
9668;DHT22;4872;48.316;10.650;2023-02-15T07:36:22;-1.50;99.90
9668;DHT22;4872;48.316;10.650;2023-02-15T07:38:49;-1.50;99.90
9668;DHT22;4872;48.316;10.650;2023-02-15T07:41:16;-1.50;99.90
9668;DHT22;4872;48.316;10.650;2023-02-15T07:43:44;-1.40;99.90
9668;DHT22;4872;48.316;10.650;2023-02-15T07:46:12;-1.30;99.90
9668;DHT22;4872;48.316;10.650;2023-02-15T07:48:40;-1.30;99.90
9668;DHT22;4872;48.316;10.650;2023-02-15T07:51:09;-1.20;99.90
9668;DHT22;4872;48.316;10.650;2023-02-15T07:53:38;-1.10;99.90
9668;DHT22;4872;48.316;10.650;2023-02-15T07:56:07;-1.00;99.90
9668;DHT22;4872;48.316;10.650;2023-02-15T07:58:35;-0.80;99.90
9668;DHT22;4872;48.316;10.650;2023-02-15T08:01:18;-0.70;99.90
9668;DHT22;4872;48.316;10.650;2023-02-15T08:03:45;-0.60;99.90
9668;DHT22;4872;48.316;10.650;2023-02-15T08:06:11;-0.50;99.90
9668;DHT22;4872;48.316;10.650;2023-02-15T08:08:40;-0.50;99.90
9668;DHT22;4872;48.316;10.650;2023-02-15T08:11:15;-0.60;99.90
9668;DHT22;4872;48.316;10.650;2023-02-15T08:13:59;-0.70;99.90
9668;DHT22;4872;48.316;10.650;2023-02-15T08:16:31;-0.60;99.90
9668;DHT22;4872;48.316;10.650;2023-02-15T08:19:00;-0.60;99.90
9668;DHT22;4872;48.316;10.650;2023-02-15T08:21:28;-0.80;99.90
9668;DHT22;4872;48.316;10.650;2023-02-15T08:23:57;-0.80;99.90
9668;DHT22;4872;48.316;10.650;2023-02-15T08:26:25;-0.80;99.90
9668;DHT22;4872;48.316;10.650;2023-02-15T08:28:53;-0.80;99.90
9668;DHT22;4872;48.316;10.650;2023-02-15T08:31:20;-0.70;99.90
9668;DHT22;4872;48.316;10.650;2023-02-15T08:33:49;-0.60;99.90
9668;DHT22;4872;48.316;10.650;2023-02-15T08:36:19;-0.50;99.90
9668;DHT22;4872;48.316;10.650;2023-02-15T08:38:46;-0.40;99.90
9668;DHT22;4872;48.316;10.650;2023-02-15T08:41:16;0.00;99.90
9668;DHT22;4872;48.316;10.650;2023-02-15T08:43:45;-0.50;99.90
9668;DHT22;4872;48.316;10.650;2023-02-15T08:46:13;-0.40;99.90
9668;DHT22;4872;48.316;10.650;2023-02-15T08:48:41;0.40;99.90
9668;DHT22;4872;48.316;10.650;2023-02-15T08:51:09;0.90;99.90
9668;DHT22;4872;48.316;10.650;2023-02-15T08:53:38;-0.40;99.90
9668;DHT22;4872;48.316;10.650;2023-02-15T08:56:05;-0.20;99.90
9668;DHT22;4872;48.316;10.650;2023-02-15T08:58:34;-0.20;99.90
9668;DHT22;4872;48.316;10.650;2023-02-15T09:01:01;-0.20;99.90
9668;DHT22;4872;48.316;10.650;2023-02-15T09:03:34;-0.20;99.90
9668;DHT22;4872;48.316;10.650;2023-02-15T09:06:01;-0.30;99.90
9668;DHT22;4872;48.316;10.650;2023-02-15T09:08:28;-0.30;99.90
9668;DHT22;4872;48.316;10.650;2023-02-15T09:11:05;-0.20;99.90
9668;DHT22;4872;48.316;10.650;2023-02-15T09:13:34;-0.20;99.90
9668;DHT22;4872;48.316;10.650;2023-02-15T09:16:01;-0.20;99.90
9668;DHT22;4872;48.316;10.650;2023-02-15T09:18:30;-0.20;99.90
9668;DHT22;4872;48.316;10.650;2023-02-15T09:20:57;-0.20;99.90
9668;DHT22;4872;48.316;10.650;2023-02-15T09:23:29;-0.20;99.90
9668;DHT22;4872;48.316;10.650;2023-02-15T09:25:56;-0.10;99.90
9668;DHT22;4872;48.316;10.650;2023-02-15T09:28:23;0.30;99.90
9668;DHT22;4872;48.316;10.650;2023-02-15T09:30:51;0.00;99.90
9668;DHT22;4872;48.316;10.650;2023-02-15T09:33:18;-0.10;99.90
9668;DHT22;4872;48.316;10.650;2023-02-15T09:35:45;0.40;99.90
9668;DHT22;4872;48.316;10.650;2023-02-15T09:38:11;0.20;99.90
9668;DHT22;4872;48.316;10.650;2023-02-15T09:40:46;0.40;99.90
9668;DHT22;4872;48.316;10.650;2023-02-15T09:43:23;0.40;99.90
9668;DHT22;4872;48.316;10.650;2023-02-15T09:46:12;0.50;99.90
9668;DHT22;4872;48.316;10.650;2023-02-15T09:48:41;0.60;99.90
9668;DHT22;4872;48.316;10.650;2023-02-15T09:51:19;0.80;99.90
9668;DHT22;4872;48.316;10.650;2023-02-15T09:54:22;0.90;99.90
9668;DHT22;4872;48.316;10.650;2023-02-15T09:56:56;1.10;99.90
9668;DHT22;4872;48.316;10.650;2023-02-15T09:59:30;1.20;99.90
9668;DHT22;4872;48.316;10.650;2023-02-15T10:02:14;1.30;99.90
9668;DHT22;4872;48.316;10.650;2023-02-15T10:04:57;1.40;99.90
9668;DHT22;4872;48.316;10.650;2023-02-15T10:07:43;1.40;99.90
9668;DHT22;4872;48.316;10.650;2023-02-15T10:10:22;1.30;99.90
9668;DHT22;4872;48.316;10.650;2023-02-15T10:13:05;1.40;99.90
9668;DHT22;4872;48.316;10.650;2023-02-15T10:15:53;1.30;99.90
9668;DHT22;4872;48.316;10.650;2023-02-15T10:18:44;1.40;99.90
9668;DHT22;4872;48.316;10.650;2023-02-15T10:21:20;1.70;99.90
9668;DHT22;4872;48.316;10.650;2023-02-15T10:24:14;1.40;99.90
9668;DHT22;4872;48.316;10.650;2023-02-15T10:26:45;1.60;99.90
9668;DHT22;4872;48.316;10.650;2023-02-15T10:29:22;1.90;99.90
9668;DHT22;4872;48.316;10.650;2023-02-15T10:31:57;2.00;99.90
9668;DHT22;4872;48.316;10.650;2023-02-15T10:34:34;2.20;99.90
9668;DHT22;4872;48.316;10.650;2023-02-15T10:37:34;2.20;99.90
9668;DHT22;4872;48.316;10.650;2023-02-15T10:40:08;2.20;99.90
9668;DHT22;4872;48.316;10.650;2023-02-15T10:42:48;2.50;99.90
9668;DHT22;4872;48.316;10.650;2023-02-15T10:45:22;2.40;99.90
9668;DHT22;4872;48.316;10.650;2023-02-15T10:48:16;2.30;99.90
9668;DHT22;4872;48.316;10.650;2023-02-15T10:50:50;2.40;99.90
9668;DHT22;4872;48.316;10.650;2023-02-15T10:53:41;2.40;99.90
9668;DHT22;4872;48.316;10.650;2023-02-15T10:56:17;2.30;99.90
9668;DHT22;4872;48.316;10.650;2023-02-15T10:59:08;2.40;99.90
9668;DHT22;4872;48.316;10.650;2023-02-15T11:01:40;2.70;99.90
9668;DHT22;4872;48.316;10.650;2023-02-15T11:04:30;3.10;99.90
9668;DHT22;4872;48.316;10.650;2023-02-15T11:07:03;3.50;99.90
9668;DHT22;4872;48.316;10.650;2023-02-15T11:09:38;3.70;99.90
9668;DHT22;4872;48.316;10.650;2023-02-15T11:12:12;4.00;99.90
9668;DHT22;4872;48.316;10.650;2023-02-15T11:14:44;4.10;99.90
9668;DHT22;4872;48.316;10.650;2023-02-15T11:17:16;3.80;99.90
9668;DHT22;4872;48.316;10.650;2023-02-15T11:19:51;4.10;99.90
9668;DHT22;4872;48.316;10.650;2023-02-15T11:22:22;3.80;99.90
9668;DHT22;4872;48.316;10.650;2023-02-15T11:24:49;4.40;99.90
9668;DHT22;4872;48.316;10.650;2023-02-15T11:27:19;5.10;99.90
9668;DHT22;4872;48.316;10.650;2023-02-15T11:29:54;5.80;99.90
9668;DHT22;4872;48.316;10.650;2023-02-15T11:32:26;6.60;99.60
9668;DHT22;4872;48.316;10.650;2023-02-15T11:34:55;6.90;98.40
9668;DHT22;4872;48.316;10.650;2023-02-15T11:37:31;8.00;97.10
9668;DHT22;4872;48.316;10.650;2023-02-15T11:39:59;8.60;95.70
9668;DHT22;4872;48.316;10.650;2023-02-15T11:42:30;9.20;93.90
9668;DHT22;4872;48.316;10.650;2023-02-15T11:45:02;9.50;93.40
9668;DHT22;4872;48.316;10.650;2023-02-15T11:47:30;9.70;93.10
9668;DHT22;4872;48.316;10.650;2023-02-15T11:49:57;10.90;91.50
9668;DHT22;4872;48.316;10.650;2023-02-15T11:52:26;11.70;90.30
9668;DHT22;4872;48.316;10.650;2023-02-15T11:54:53;11.90;87.70
9668;DHT22;4872;48.316;10.650;2023-02-15T11:57:25;12.20;83.80
9668;DHT22;4872;48.316;10.650;2023-02-15T11:59:57;11.70;84.00
9668;DHT22;4872;48.316;10.650;2023-02-15T12:02:26;12.10;83.10
9668;DHT22;4872;48.316;10.650;2023-02-15T12:04:57;13.10;83.40
9668;DHT22;4872;48.316;10.650;2023-02-15T12:07:30;13.40;81.00
9668;DHT22;4872;48.316;10.650;2023-02-15T12:10:03;14.50;79.60
9668;DHT22;4872;48.316;10.650;2023-02-15T12:12:33;15.10;76.10
9668;DHT22;4872;48.316;10.650;2023-02-15T12:15:02;15.30;74.00
9668;DHT22;4872;48.316;10.650;2023-02-15T12:17:31;16.80;73.20
9668;DHT22;4872;48.316;10.650;2023-02-15T12:20:01;18.20;68.80
9668;DHT22;4872;48.316;10.650;2023-02-15T12:22:32;18.00;65.60
9668;DHT22;4872;48.316;10.650;2023-02-15T12:25:02;19.20;65.00
9668;DHT22;4872;48.316;10.650;2023-02-15T12:27:32;18.60;62.90
9668;DHT22;4872;48.316;10.650;2023-02-15T12:30:00;19.20;62.10
9668;DHT22;4872;48.316;10.650;2023-02-15T12:32:31;18.00;60.40
9668;DHT22;4872;48.316;10.650;2023-02-15T12:35:02;17.00;61.40
9668;DHT22;4872;48.316;10.650;2023-02-15T12:37:35;17.20;61.20
9668;DHT22;4872;48.316;10.650;2023-02-15T12:40:18;17.60;63.30
9668;DHT22;4872;48.316;10.650;2023-02-15T12:42:45;17.80;60.00
9668;DHT22;4872;48.316;10.650;2023-02-15T12:45:24;18.20;58.80
9668;DHT22;4872;48.316;10.650;2023-02-15T12:48:15;17.60;59.30
9668;DHT22;4872;48.316;10.650;2023-02-15T12:50:43;16.80;59.40
9668;DHT22;4872;48.316;10.650;2023-02-15T12:53:16;15.20;60.40
9668;DHT22;4872;48.316;10.650;2023-02-15T12:55:53;14.00;62.10
9668;DHT22;4872;48.316;10.650;2023-02-15T12:58:23;13.80;65.50
9668;DHT22;4872;48.316;10.650;2023-02-15T13:01:12;13.40;65.70
9668;DHT22;4872;48.316;10.650;2023-02-15T13:03:54;13.20;66.20
9668;DHT22;4872;48.316;10.650;2023-02-15T13:06:22;12.40;67.70
9668;DHT22;4872;48.316;10.650;2023-02-15T13:08:52;12.80;69.30
9668;DHT22;4872;48.316;10.650;2023-02-15T13:11:22;12.00;70.80
9668;DHT22;4872;48.316;10.650;2023-02-15T13:13:54;11.70;71.40
9668;DHT22;4872;48.316;10.650;2023-02-15T13:16:28;11.60;71.80
9668;DHT22;4872;48.316;10.650;2023-02-15T13:18:57;11.20;72.80
9668;DHT22;4872;48.316;10.650;2023-02-15T13:21:28;10.80;73.30
9668;DHT22;4872;48.316;10.650;2023-02-15T13:30:56;11.10;74.90
9668;DHT22;4872;48.316;10.650;2023-02-15T13:33:30;11.60;76.10
9668;DHT22;4872;48.316;10.650;2023-02-15T13:36:04;11.40;75.60
9668;DHT22;4872;48.316;10.650;2023-02-15T13:39:05;11.40;75.50
9668;DHT22;4872;48.316;10.650;2023-02-15T13:41:52;11.40;75.80
9668;DHT22;4872;48.316;10.650;2023-02-15T13:44:29;11.40;76.90
9668;DHT22;4872;48.316;10.650;2023-02-15T13:47:10;11.20;76.40
9668;DHT22;4872;48.316;10.650;2023-02-15T13:49:50;11.10;77.00
9668;DHT22;4872;48.316;10.650;2023-02-15T13:52:21;10.90;76.50
9668;DHT22;4872;48.316;10.650;2023-02-15T13:54:58;11.00;77.70
9668;DHT22;4872;48.316;10.650;2023-02-15T13:57:42;11.10;77.50
9668;DHT22;4872;48.316;10.650;2023-02-15T14:00:21;11.30;77.00
9668;DHT22;4872;48.316;10.650;2023-02-15T14:03:18;11.20;76.50
9668;DHT22;4872;48.316;10.650;2023-02-15T14:06:01;11.20;77.30
9668;DHT22;4872;48.316;10.650;2023-02-15T14:08:42;11.30;78.30
9668;DHT22;4872;48.316;10.650;2023-02-15T14:11:18;11.40;79.00
9668;DHT22;4872;48.316;10.650;2023-02-15T14:14:10;11.60;78.80
9668;DHT22;4872;48.316;10.650;2023-02-15T14:16:45;11.80;78.20
9668;DHT22;4872;48.316;10.650;2023-02-15T14:19:23;11.90;78.50
9668;DHT22;4872;48.316;10.650;2023-02-15T14:21:58;12.00;77.60
9668;DHT22;4872;48.316;10.650;2023-02-15T14:24:32;12.10;78.10
9668;DHT22;4872;48.316;10.650;2023-02-15T14:27:07;12.20;77.90
9668;DHT22;4872;48.316;10.650;2023-02-15T14:29:47;11.80;77.90
9668;DHT22;4872;48.316;10.650;2023-02-15T14:32:20;11.80;78.20
9668;DHT22;4872;48.316;10.650;2023-02-15T14:34:53;12.40;79.30
9668;DHT22;4872;48.316;10.650;2023-02-15T14:37:29;11.40;79.30
9668;DHT22;4872;48.316;10.650;2023-02-15T14:40:02;11.60;79.20
9668;DHT22;4872;48.316;10.650;2023-02-15T14:42:52;11.60;79.60
9668;DHT22;4872;48.316;10.650;2023-02-15T14:45:24;11.60;79.80
9668;DHT22;4872;48.316;10.650;2023-02-15T14:48:03;11.60;79.60
9668;DHT22;4872;48.316;10.650;2023-02-15T14:50:46;11.80;79.40
9668;DHT22;4872;48.316;10.650;2023-02-15T14:53:34;12.00;78.50
9668;DHT22;4872;48.316;10.650;2023-02-15T14:56:18;11.70;78.90
9668;DHT22;4872;48.316;10.650;2023-02-15T14:58:56;11.90;79.20
9668;DHT22;4872;48.316;10.650;2023-02-15T15:01:26;12.00;78.80
9668;DHT22;4872;48.316;10.650;2023-02-15T15:03:55;12.10;79.00
9668;DHT22;4872;48.316;10.650;2023-02-15T15:06:26;11.90;78.30
9668;DHT22;4872;48.316;10.650;2023-02-15T15:08:55;12.00;78.60
9668;DHT22;4872;48.316;10.650;2023-02-15T15:11:41;12.20;78.90
9668;DHT22;4872;48.316;10.650;2023-02-15T15:14:08;12.30;78.70
9668;DHT22;4872;48.316;10.650;2023-02-15T15:16:50;12.50;78.20
9668;DHT22;4872;48.316;10.650;2023-02-15T15:22:26;12.60;76.80
9668;DHT22;4872;48.316;10.650;2023-02-15T15:24:53;12.90;76.60
9668;DHT22;4872;48.316;10.650;2023-02-15T15:27:44;13.60;77.00
9668;DHT22;4872;48.316;10.650;2023-02-15T15:30:49;14.30;75.10
9668;DHT22;4872;48.316;10.650;2023-02-15T15:36:58;17.50;70.50
9668;DHT22;4872;48.316;10.650;2023-02-15T15:42:32;19.90;64.50
9668;DHT22;4872;48.316;10.650;2023-02-15T15:45:35;21.00;62.50
9668;DHT22;4872;48.316;10.650;2023-02-15T15:48:21;21.90;60.10
9668;DHT22;4872;48.316;10.650;2023-02-15T15:50:53;22.50;58.00
9668;DHT22;4872;48.316;10.650;2023-02-15T15:53:25;22.90;56.40
9668;DHT22;4872;48.316;10.650;2023-02-15T15:55:57;23.40;55.60
9668;DHT22;4872;48.316;10.650;2023-02-15T15:58:25;23.50;54.50
9668;DHT22;4872;48.316;10.650;2023-02-15T16:00:55;23.40;53.60
9668;DHT22;4872;48.316;10.650;2023-02-15T16:03:26;23.30;53.10
9668;DHT22;4872;48.316;10.650;2023-02-15T16:05:53;23.10;52.50
9668;DHT22;4872;48.316;10.650;2023-02-15T16:08:32;22.50;52.60
9668;DHT22;4872;48.316;10.650;2023-02-15T16:11:10;22.10;52.80
9668;DHT22;4872;48.316;10.650;2023-02-15T16:13:39;21.60;52.40
9668;DHT22;4872;48.316;10.650;2023-02-15T16:16:06;20.30;52.90
9668;DHT22;4872;48.316;10.650;2023-02-15T16:18:37;19.00;54.00
9668;DHT22;4872;48.316;10.650;2023-02-15T16:21:04;17.10;55.80
9668;DHT22;4872;48.316;10.650;2023-02-15T16:27:04;13.90;59.20
9668;DHT22;4872;48.316;10.650;2023-02-15T16:29:36;12.50;61.40
9668;DHT22;4872;48.316;10.650;2023-02-15T16:32:04;11.50;64.20
9668;DHT22;4872;48.316;10.650;2023-02-15T16:34:32;10.60;66.10
9668;DHT22;4872;48.316;10.650;2023-02-15T16:37:16;9.90;69.10
9668;DHT22;4872;48.316;10.650;2023-02-15T16:39:44;9.30;70.80
9668;DHT22;4872;48.316;10.650;2023-02-15T16:42:15;8.90;72.40
9668;DHT22;4872;48.316;10.650;2023-02-15T16:44:43;8.80;73.90
9668;DHT22;4872;48.316;10.650;2023-02-15T16:47:16;8.40;75.10
9668;DHT22;4872;48.316;10.650;2023-02-15T16:49:46;7.80;76.90
9668;DHT22;4872;48.316;10.650;2023-02-15T16:52:18;7.40;77.80
9668;DHT22;4872;48.316;10.650;2023-02-15T16:54:46;7.20;79.20
9668;DHT22;4872;48.316;10.650;2023-02-15T16:57:20;7.20;80.40
9668;DHT22;4872;48.316;10.650;2023-02-15T16:59:49;6.80;81.40
9668;DHT22;4872;48.316;10.650;2023-02-15T17:02:19;7.00;83.60
9668;DHT22;4872;48.316;10.650;2023-02-15T17:05:04;6.30;84.90
9668;DHT22;4872;48.316;10.650;2023-02-15T17:07:32;6.20;85.80
9668;DHT22;4872;48.316;10.650;2023-02-15T17:09:59;6.00;87.40
9668;DHT22;4872;48.316;10.650;2023-02-15T17:12:53;6.20;89.20
9668;DHT22;4872;48.316;10.650;2023-02-15T17:15:29;5.60;90.40
9668;DHT22;4872;48.316;10.650;2023-02-15T17:17:58;5.50;90.80
9668;DHT22;4872;48.316;10.650;2023-02-15T17:20:25;5.40;91.20
9668;DHT22;4872;48.316;10.650;2023-02-15T17:22:53;5.30;91.70
9668;DHT22;4872;48.316;10.650;2023-02-15T17:25:25;5.20;92.10
9668;DHT22;4872;48.316;10.650;2023-02-15T17:27:55;5.20;92.50
9668;DHT22;4872;48.316;10.650;2023-02-15T17:30:27;5.10;92.80
9668;DHT22;4872;48.316;10.650;2023-02-15T17:32:56;5.00;92.80
9668;DHT22;4872;48.316;10.650;2023-02-15T17:35:25;4.90;93.00
9668;DHT22;4872;48.316;10.650;2023-02-15T17:38:01;4.80;93.10
9668;DHT22;4872;48.316;10.650;2023-02-15T17:40:29;4.70;93.00
9668;DHT22;4872;48.316;10.650;2023-02-15T17:42:58;4.50;92.60
9668;DHT22;4872;48.316;10.650;2023-02-15T17:45:29;4.40;93.00
9668;DHT22;4872;48.316;10.650;2023-02-15T17:47:57;4.70;93.30
9668;DHT22;4872;48.316;10.650;2023-02-15T17:50:26;4.40;93.30
9668;DHT22;4872;48.316;10.650;2023-02-15T17:52:55;4.30;93.20
9668;DHT22;4872;48.316;10.650;2023-02-15T17:55:24;4.10;93.70
9668;DHT22;4872;48.316;10.650;2023-02-15T17:58:10;4.00;93.80
9668;DHT22;4872;48.316;10.650;2023-02-15T18:00:40;4.00;94.20
9668;DHT22;4872;48.316;10.650;2023-02-15T18:03:30;3.90;93.90
9668;DHT22;4872;48.316;10.650;2023-02-15T18:06:15;3.90;94.00
9668;DHT22;4872;48.316;10.650;2023-02-15T18:08:59;3.90;94.20
9668;DHT22;4872;48.316;10.650;2023-02-15T18:11:44;3.80;94.60
9668;DHT22;4872;48.316;10.650;2023-02-15T18:14:15;3.70;94.70
9668;DHT22;4872;48.316;10.650;2023-02-15T18:16:43;3.70;94.90
9668;DHT22;4872;48.316;10.650;2023-02-15T18:19:14;3.80;95.20
9668;DHT22;4872;48.316;10.650;2023-02-15T18:21:41;3.60;95.60
9668;DHT22;4872;48.316;10.650;2023-02-15T18:24:14;3.50;96.00
9668;DHT22;4872;48.316;10.650;2023-02-15T18:26:41;3.50;96.50
9668;DHT22;4872;48.316;10.650;2023-02-15T18:29:08;3.40;96.90
9668;DHT22;4872;48.316;10.650;2023-02-15T18:31:36;3.20;97.30
9668;DHT22;4872;48.316;10.650;2023-02-15T18:34:04;3.60;98.00
9668;DHT22;4872;48.316;10.650;2023-02-15T18:36:34;3.20;98.30
9668;DHT22;4872;48.316;10.650;2023-02-15T18:39:04;3.10;98.60
9668;DHT22;4872;48.316;10.650;2023-02-15T18:41:31;3.10;99.00
9668;DHT22;4872;48.316;10.650;2023-02-15T18:43:58;3.10;99.40
9668;DHT22;4872;48.316;10.650;2023-02-15T18:46:25;3.10;99.70
9668;DHT22;4872;48.316;10.650;2023-02-15T18:48:53;3.00;99.90
9668;DHT22;4872;48.316;10.650;2023-02-15T18:51:21;3.00;99.90
9668;DHT22;4872;48.316;10.650;2023-02-15T18:53:50;3.00;99.90
9668;DHT22;4872;48.316;10.650;2023-02-15T18:56:20;3.00;99.90
9668;DHT22;4872;48.316;10.650;2023-02-15T18:58:48;2.90;99.90
9668;DHT22;4872;48.316;10.650;2023-02-15T19:01:15;2.90;99.90
9668;DHT22;4872;48.316;10.650;2023-02-15T19:03:44;2.90;99.90
9668;DHT22;4872;48.316;10.650;2023-02-15T19:06:14;2.80;99.90
9668;DHT22;4872;48.316;10.650;2023-02-15T19:08:44;2.80;99.90
9668;DHT22;4872;48.316;10.650;2023-02-15T19:11:14;2.70;99.90
9668;DHT22;4872;48.316;10.650;2023-02-15T19:13:42;2.60;99.90
9668;DHT22;4872;48.316;10.650;2023-02-15T19:16:18;2.60;99.90
9668;DHT22;4872;48.316;10.650;2023-02-15T19:18:48;2.80;99.90
9668;DHT22;4872;48.316;10.650;2023-02-15T19:21:16;2.30;99.90
9668;DHT22;4872;48.316;10.650;2023-02-15T19:23:45;2.50;99.90
9668;DHT22;4872;48.316;10.650;2023-02-15T19:26:14;2.50;99.80
9668;DHT22;4872;48.316;10.650;2023-02-15T19:28:40;2.50;99.70
9668;DHT22;4872;48.316;10.650;2023-02-15T19:31:10;2.50;99.40
9668;DHT22;4872;48.316;10.650;2023-02-15T19:33:37;2.40;99.60
9668;DHT22;4872;48.316;10.650;2023-02-15T19:36:08;2.40;99.70
9668;DHT22;4872;48.316;10.650;2023-02-15T19:38:40;2.30;99.30
9668;DHT22;4872;48.316;10.650;2023-02-15T19:41:13;2.40;99.60
9668;DHT22;4872;48.316;10.650;2023-02-15T19:43:42;2.10;99.40
9668;DHT22;4872;48.316;10.650;2023-02-15T19:46:14;2.10;99.70
9668;DHT22;4872;48.316;10.650;2023-02-15T19:48:44;2.20;99.50
9668;DHT22;4872;48.316;10.650;2023-02-15T19:51:12;2.00;99.50
9668;DHT22;4872;48.316;10.650;2023-02-15T19:53:40;1.90;99.40
9668;DHT22;4872;48.316;10.650;2023-02-15T19:56:10;1.90;99.70
9668;DHT22;4872;48.316;10.650;2023-02-15T19:58:37;1.80;99.70
9668;DHT22;4872;48.316;10.650;2023-02-15T20:01:04;1.70;99.70
9668;DHT22;4872;48.316;10.650;2023-02-15T20:03:30;1.70;99.90
9668;DHT22;4872;48.316;10.650;2023-02-15T20:05:57;1.50;99.70
9668;DHT22;4872;48.316;10.650;2023-02-15T20:08:25;1.40;99.90
9668;DHT22;4872;48.316;10.650;2023-02-15T20:10:53;1.40;99.90
9668;DHT22;4872;48.316;10.650;2023-02-15T20:13:21;1.70;99.90
9668;DHT22;4872;48.316;10.650;2023-02-15T20:15:49;1.50;99.90
9668;DHT22;4872;48.316;10.650;2023-02-15T20:18:16;1.50;99.90
9668;DHT22;4872;48.316;10.650;2023-02-15T20:20:45;1.50;99.90
9668;DHT22;4872;48.316;10.650;2023-02-15T20:23:20;1.40;99.90
9668;DHT22;4872;48.316;10.650;2023-02-15T20:25:48;1.40;99.90
9668;DHT22;4872;48.316;10.650;2023-02-15T20:28:19;1.40;99.90
9668;DHT22;4872;48.316;10.650;2023-02-15T20:30:46;1.30;99.90
9668;DHT22;4872;48.316;10.650;2023-02-15T20:33:14;1.30;99.90
9668;DHT22;4872;48.316;10.650;2023-02-15T20:35:41;1.30;99.90
9668;DHT22;4872;48.316;10.650;2023-02-15T20:38:16;1.30;99.90
9668;DHT22;4872;48.316;10.650;2023-02-15T20:40:44;1.10;99.90
9668;DHT22;4872;48.316;10.650;2023-02-15T20:43:27;1.00;99.90
9668;DHT22;4872;48.316;10.650;2023-02-15T20:45:53;1.00;99.90
9668;DHT22;4872;48.316;10.650;2023-02-15T20:48:20;1.00;99.90
9668;DHT22;4872;48.316;10.650;2023-02-15T20:50:47;1.00;99.90
9668;DHT22;4872;48.316;10.650;2023-02-15T20:53:13;0.90;99.90
9668;DHT22;4872;48.316;10.650;2023-02-15T20:55:40;0.90;99.90
9668;DHT22;4872;48.316;10.650;2023-02-15T20:58:19;0.80;99.90
9668;DHT22;4872;48.316;10.650;2023-02-15T21:00:47;0.90;99.90
9668;DHT22;4872;48.316;10.650;2023-02-15T21:03:21;0.90;99.90
9668;DHT22;4872;48.316;10.650;2023-02-15T21:05:48;0.90;99.90
9668;DHT22;4872;48.316;10.650;2023-02-15T21:08:17;0.90;99.90
9668;DHT22;4872;48.316;10.650;2023-02-15T21:10:45;1.00;99.90
9668;DHT22;4872;48.316;10.650;2023-02-15T21:13:19;0.80;99.90
9668;DHT22;4872;48.316;10.650;2023-02-15T21:15:49;0.80;99.90
9668;DHT22;4872;48.316;10.650;2023-02-15T21:18:20;0.80;99.90
9668;DHT22;4872;48.316;10.650;2023-02-15T21:20:50;0.70;99.90
9668;DHT22;4872;48.316;10.650;2023-02-15T21:23:21;0.70;99.90
9668;DHT22;4872;48.316;10.650;2023-02-15T21:25:48;0.80;99.90
9668;DHT22;4872;48.316;10.650;2023-02-15T21:28:17;0.60;99.90
9668;DHT22;4872;48.316;10.650;2023-02-15T21:30:45;0.60;99.90
9668;DHT22;4872;48.316;10.650;2023-02-15T21:33:14;0.60;99.90
9668;DHT22;4872;48.316;10.650;2023-02-15T21:35:41;0.40;99.90
9668;DHT22;4872;48.316;10.650;2023-02-15T21:38:12;0.40;99.90
9668;DHT22;4872;48.316;10.650;2023-02-15T21:40:40;0.40;99.90
9668;DHT22;4872;48.316;10.650;2023-02-15T21:43:12;0.30;99.90
9668;DHT22;4872;48.316;10.650;2023-02-15T21:45:57;0.40;99.90
9668;DHT22;4872;48.316;10.650;2023-02-15T21:48:42;0.40;99.90